Time;durP1;ratioP1;P1;durP2;ratioP2;P2;SDS_P1;SDS_P2;PMS_P1;PMS_P2;Temp;Humidity;BMP_temperature;BMP_pressure;BME280_temperature;BME280_humidity;BME280_pressure;Samples;Min_cycle;Max_cycle;Signal;HPM_P1;HPM_P2
2022/09/17 00:01:56;;;;;;;24.02;3.85;;;11.50;99.90;;;;;;6149045;23;20047;-65
2022/09/17 00:04:21;;;;;;;15.80;2.97;;;11.60;99.90;;;;;;6177858;23;20100;-66
2022/09/17 00:06:47;;;;;;;19.67;3.50;;;11.60;99.90;;;;;;6178280;23;20357;-65
2022/09/17 00:09:13;;;;;;;17.30;2.92;;;11.60;99.90;;;;;;6150992;23;20049;-65
2022/09/17 00:11:42;;;;;;;11.85;2.70;;;11.50;99.90;;;;;;6152017;23;20017;-65
2022/09/17 00:14:13;;;;;;;14.95;2.95;;;11.60;99.90;;;;;;6176725;23;20162;-66
2022/09/17 00:16:42;;;;;;;15.40;2.60;;;11.50;99.90;;;;;;6178752;23;20130;-66
2022/09/17 00:19:13;;;;;;;16.33;3.15;;;11.60;99.90;;;;;;6150310;23;20132;-66
2022/09/17 00:21:39;;;;;;;18.15;3.38;;;11.60;99.90;;;;;;6178493;23;20032;-66
2022/09/17 00:24:06;;;;;;;21.88;3.05;;;11.70;99.90;;;;;;6175779;23;20028;-66
2022/09/17 00:26:33;;;;;;;14.43;2.53;;;11.70;99.90;;;;;;6178898;23;20067;-66
2022/09/17 00:29:00;;;;;;;14.25;2.53;;;11.80;99.90;;;;;;6175366;23;20353;-66
2022/09/17 00:31:27;;;;;;;11.18;2.33;;;11.80;99.90;;;;;;6175826;23;20019;-66
2022/09/17 00:33:52;;;;;;;10.70;1.98;;;11.70;99.90;;;;;;6178612;23;20039;-66
2022/09/17 00:36:19;;;;;;;11.00;3.08;;;11.70;99.90;;;;;;6176674;23;20882;-67
2022/09/17 00:38:58;;;;;;;11.38;2.10;;;11.70;99.90;;;;;;6177949;23;20028;-67
2022/09/17 00:41:28;;;;;;;12.70;2.35;;;11.70;99.90;;;;;;6176504;23;20021;-66
2022/09/17 00:43:56;;;;;;;9.75;1.98;;;11.70;99.90;;;;;;6178453;23;20013;-67
2022/09/17 00:46:48;;;;;;;17.20;3.45;;;11.70;99.90;;;;;;6177855;23;20314;-66
2022/09/17 00:49:25;;;;;;;11.48;2.00;;;11.70;99.90;;;;;;6172268;23;20214;-66
2022/09/17 00:52:01;;;;;;;23.63;2.90;;;11.70;99.90;;;;;;6149559;23;20032;-66
2022/09/17 00:54:27;;;;;;;11.80;1.90;;;11.70;99.90;;;;;;6152719;23;20017;-66
2022/09/17 00:56:53;;;;;;;12.63;1.80;;;11.70;99.90;;;;;;6177099;23;20492;-66
2022/09/17 00:59:21;;;;;;;8.52;1.92;;;11.60;99.90;;;;;;6173689;23;20021;-65
2022/09/17 01:01:47;;;;;;;11.15;1.92;;;11.50;99.90;;;;;;6152093;23;20063;-66
2022/09/17 01:04:22;;;;;;;9.10;1.92;;;11.50;99.90;;;;;;6178290;23;20039;-66
2022/09/17 01:07:12;;;;;;;20.92;2.35;;;11.40;99.90;;;;;;6176105;23;20025;-65
2022/09/17 01:09:41;;;;;;;10.30;2.22;;;11.30;99.90;;;;;;6177202;23;20397;-65
2022/09/17 01:12:20;;;;;;;7.80;1.85;;;11.20;99.90;;;;;;6174336;23;20024;-66
2022/09/17 01:15:01;;;;;;;10.38;2.10;;;11.10;99.90;;;;;;6177202;23;20130;-65
2022/09/17 01:17:50;;;;;;;15.27;2.63;;;11.10;99.90;;;;;;6174407;23;20075;-65
2022/09/17 01:20:31;;;;;;;15.20;2.65;;;11.10;99.90;;;;;;6173846;23;20083;-65
2022/09/17 01:23:16;;;;;;;12.75;2.50;;;11.20;99.90;;;;;;6177278;23;20095;-65
2022/09/17 01:26:06;;;;;;;12.35;2.13;;;11.20;99.90;;;;;;6177064;23;20024;-64
2022/09/17 01:28:45;;;;;;;16.30;2.35;;;11.20;99.90;;;;;;6178006;23;20231;-65
2022/09/17 01:31:18;;;;;;;11.82;2.50;;;11.30;99.90;;;;;;6176716;23;20017;-65
2022/09/17 01:34:07;;;;;;;12.52;3.00;;;11.20;99.90;;;;;;6150744;23;20048;-65
2022/09/17 01:36:55;;;;;;;14.13;2.45;;;11.20;99.90;;;;;;6149799;23;20551;-65
2022/09/17 01:39:30;;;;;;;20.02;3.10;;;11.20;99.90;;;;;;6176297;23;20463;-66
2022/09/17 01:42:17;;;;;;;21.17;2.58;;;11.20;99.90;;;;;;6176637;23;20017;-65
2022/09/17 01:45:14;;;;;;;12.88;2.45;;;11.30;99.90;;;;;;6177648;23;20519;-65
2022/09/17 01:47:53;;;;;;;14.55;2.33;;;11.30;99.90;;;;;;6176986;23;20016;-66
2022/09/17 01:50:37;;;;;;;16.63;2.53;;;11.30;99.90;;;;;;6177299;23;20032;-66
2022/09/17 01:53:05;;;;;;;13.95;2.90;;;11.40;99.90;;;;;;6177116;23;20017;-66
2022/09/17 01:55:36;;;;;;;11.15;2.10;;;11.40;99.90;;;;;;6179935;23;20057;-65
2022/09/17 01:58:21;;;;;;;21.50;2.83;;;11.30;99.90;;;;;;6151754;23;20349;-65
2022/09/17 02:00:53;;;;;;;13.95;2.92;;;11.30;99.90;;;;;;6176811;23;20048;-65
2022/09/17 02:03:29;;;;;;;15.10;3.50;;;11.40;99.90;;;;;;6177678;23;20032;-65
2022/09/17 02:06:03;;;;;;;14.38;2.55;;;11.40;99.90;;;;;;6177787;23;20025;-64
2022/09/17 02:08:55;;;;;;;22.00;2.97;;;11.40;99.90;;;;;;6177072;23;20013;-65
2022/09/17 02:11:21;;;;;;;15.90;2.35;;;11.30;99.90;;;;;;6172476;23;20463;-65
2022/09/17 02:13:52;;;;;;;14.32;2.20;;;11.30;99.90;;;;;;6176477;23;20017;-65
2022/09/17 02:16:29;;;;;;;9.88;2.25;;;11.30;99.90;;;;;;6174292;23;20022;-65
2022/09/17 02:19:00;;;;;;;13.02;2.70;;;11.20;99.90;;;;;;6175141;23;20025;-65
2022/09/17 02:21:47;;;;;;;14.57;2.40;;;11.10;99.90;;;;;;6175547;23;20092;-65
2022/09/17 02:24:24;;;;;;;15.05;2.67;;;11.10;99.90;;;;;;6173687;23;20021;-65
2022/09/17 02:27:12;;;;;;;12.85;2.10;;;11.10;99.90;;;;;;6149597;23;20089;-66
2022/09/17 02:29:43;;;;;;;11.43;1.80;;;11.10;99.90;;;;;;6174855;23;20453;-66
2022/09/17 02:32:11;;;;;;;13.35;2.22;;;11.10;99.90;;;;;;6175514;23;20103;-66
2022/09/17 02:34:36;;;;;;;10.70;2.55;;;11.20;99.90;;;;;;6149327;23;20457;-66
2022/09/17 02:37:04;;;;;;;12.00;2.03;;;11.30;99.90;;;;;;6174885;23;20021;-67
2022/09/17 02:39:31;;;;;;;12.88;3.10;;;11.40;99.90;;;;;;6174849;23;20044;-66
2022/09/17 02:42:21;;;;;;;12.50;2.72;;;11.50;99.90;;;;;;6176079;23;20031;-66
2022/09/17 02:44:59;;;;;;;12.07;2.40;;;11.50;99.90;;;;;;6175567;23;20017;-66
2022/09/17 02:47:45;;;;;;;10.82;2.33;;;11.60;99.90;;;;;;6177149;23;20044;-66
2022/09/17 02:50:26;;;;;;;17.38;2.85;;;11.50;99.90;;;;;;6176646;23;20024;-66
2022/09/17 02:53:22;;;;;;;19.77;3.28;;;11.60;99.90;;;;;;6149425;23;20021;-66
2022/09/17 02:56:09;;;;;;;10.18;2.10;;;11.50;99.90;;;;;;6149873;23;20095;-66
2022/09/17 02:59:10;;;;;;;11.20;2.45;;;11.50;99.90;;;;;;6177073;23;20088;-65
2022/09/17 03:01:43;;;;;;;5.78;1.52;;;11.50;99.90;;;;;;6175744;23;20040;-65
2022/09/17 03:04:12;;;;;;;6.70;1.40;;;11.50;99.90;;;;;;6178363;23;20025;-66
2022/09/17 03:06:39;;;;;;;9.02;1.50;;;11.40;99.90;;;;;;6175708;23;20017;-65
2022/09/17 03:09:05;;;;;;;7.22;1.23;;;11.50;99.90;;;;;;6174904;23;20528;-65
2022/09/17 03:11:31;;;;;;;10.10;2.13;;;11.40;99.90;;;;;;6177206;23;20036;-66
2022/09/17 03:13:57;;;;;;;10.45;1.73;;;11.30;99.90;;;;;;6176473;23;20124;-65
2022/09/17 03:16:23;;;;;;;11.88;2.22;;;11.30;99.90;;;;;;6177740;23;20091;-66
2022/09/17 03:18:48;;;;;;;9.05;1.73;;;11.20;99.90;;;;;;6175894;23;20025;-65
2022/09/17 03:21:14;;;;;;;11.75;2.08;;;11.10;99.90;;;;;;6176179;23;20087;-66
2022/09/17 03:23:40;;;;;;;10.25;2.00;;;11.10;99.90;;;;;;6177464;23;20017;-66
2022/09/17 03:26:05;;;;;;;11.90;2.80;;;10.90;99.90;;;;;;6174529;23;20104;-66
2022/09/17 03:28:31;;;;;;;9.23;1.88;;;10.90;99.90;;;;;;6179278;23;20092;-66
2022/09/17 03:30:57;;;;;;;13.00;2.80;;;10.90;99.90;;;;;;6178657;23;20013;-66
2022/09/17 03:33:23;;;;;;;9.98;2.03;;;10.80;99.90;;;;;;6172814;23;20374;-66
2022/09/17 03:35:48;;;;;;;14.27;2.70;;;10.80;99.90;;;;;;6179129;23;20076;-66
2022/09/17 03:38:15;;;;;;;14.65;2.00;;;10.80;99.90;;;;;;6152491;23;20052;-66
2022/09/17 03:40:41;;;;;;;11.80;1.98;;;10.80;99.90;;;;;;6176903;23;20025;-66
2022/09/17 03:43:07;;;;;;;10.98;2.20;;;10.80;99.90;;;;;;6153142;23;20461;-67
2022/09/17 03:45:33;;;;;;;9.57;2.67;;;10.80;99.90;;;;;;6177011;23;20013;-67
2022/09/17 03:47:58;;;;;;;22.25;2.30;;;10.90;99.90;;;;;;6150999;23;20363;-66
2022/09/17 03:50:24;;;;;;;9.70;1.95;;;10.90;99.90;;;;;;6178156;23;20028;-65
2022/09/17 03:52:50;;;;;;;10.68;2.15;;;10.90;99.90;;;;;;6177567;23;20023;-65
2022/09/17 03:55:16;;;;;;;13.05;2.88;;;11.00;99.90;;;;;;6174186;23;20029;-65
2022/09/17 03:57:42;;;;;;;12.75;2.03;;;11.00;99.90;;;;;;6176942;23;20040;-65
2022/09/17 04:00:09;;;;;;;13.32;3.08;;;11.00;99.90;;;;;;6149617;23;20029;-66
2022/09/17 04:02:34;;;;;;;16.20;3.15;;;11.00;99.90;;;;;;6176815;23;20371;-65
2022/09/17 04:05:00;;;;;;;11.10;3.33;;;11.10;99.90;;;;;;6175847;23;20021;-65
2022/09/17 04:07:26;;;;;;;20.40;4.03;;;11.20;99.90;;;;;;6174934;23;20014;-66
2022/09/17 04:09:51;;;;;;;13.90;2.78;;;11.30;99.90;;;;;;6174818;23;20017;-65
2022/09/17 04:12:17;;;;;;;11.73;2.58;;;11.30;99.90;;;;;;6177350;23;20047;-65
2022/09/17 04:14:42;;;;;;;13.35;2.72;;;11.30;99.90;;;;;;6174837;23;20025;-66
2022/09/17 04:17:08;;;;;;;22.63;3.92;;;11.10;99.90;;;;;;6146650;23;20025;-65
2022/09/17 04:19:34;;;;;;;12.88;2.85;;;11.00;99.90;;;;;;6177728;23;20025;-65
2022/09/17 04:21:59;;;;;;;16.75;3.13;;;11.00;99.90;;;;;;6173404;23;20013;-65
2022/09/17 04:24:25;;;;;;;16.17;2.92;;;10.90;99.90;;;;;;6175615;23;20477;-65
2022/09/17 04:26:51;;;;;;;12.65;2.38;;;10.80;99.90;;;;;;6178648;23;20449;-66
2022/09/17 04:29:17;;;;;;;15.10;2.67;;;10.80;99.90;;;;;;6177268;23;20045;-65
2022/09/17 04:31:42;;;;;;;14.15;2.47;;;10.70;99.90;;;;;;6177143;23;20101;-65
2022/09/17 04:34:08;;;;;;;19.35;2.67;;;10.60;99.90;;;;;;6151214;23;20025;-66
2022/09/17 04:36:34;;;;;;;17.95;3.22;;;10.60;99.90;;;;;;6177358;23;20025;-65
2022/09/17 04:38:59;;;;;;;15.38;3.10;;;10.50;99.90;;;;;;6149787;23;20104;-65
2022/09/17 04:41:25;;;;;;;20.98;3.08;;;10.40;99.90;;;;;;6175559;23;20017;-65
2022/09/17 04:43:51;;;;;;;10.80;2.17;;;10.40;99.90;;;;;;6179040;23;20017;-66
2022/09/17 04:46:16;;;;;;;10.88;2.53;;;10.30;99.90;;;;;;6179271;23;20468;-66
2022/09/17 04:48:42;;;;;;;10.90;1.92;;;10.40;99.90;;;;;;6179132;23;20021;-66
2022/09/17 04:51:08;;;;;;;15.48;2.50;;;10.30;99.90;;;;;;6176122;23;20456;-67
2022/09/17 04:53:33;;;;;;;11.80;1.90;;;10.30;99.90;;;;;;6151849;23;20024;-67
2022/09/17 04:55:59;;;;;;;13.18;2.35;;;10.30;99.90;;;;;;6176645;23;20056;-66
2022/09/17 04:58:25;;;;;;;9.65;1.77;;;10.40;99.90;;;;;;6175344;23;20457;-66
2022/09/17 05:00:51;;;;;;;16.05;2.50;;;10.40;99.90;;;;;;6174995;23;20183;-66
2022/09/17 05:03:16;;;;;;;18.77;3.03;;;10.50;99.90;;;;;;6175888;23;20029;-66
2022/09/17 05:05:42;;;;;;;17.95;2.20;;;10.60;99.90;;;;;;6151528;23;20441;-65
2022/09/17 05:08:08;;;;;;;17.15;3.60;;;10.70;99.90;;;;;;6148565;23;20578;-66
2022/09/17 05:10:33;;;;;;;10.48;3.03;;;10.80;99.90;;;;;;6147383;23;20021;-66
2022/09/17 05:12:59;;;;;;;18.48;2.72;;;10.80;99.90;;;;;;6174505;23;20017;-65
2022/09/17 05:15:26;;;;;;;17.27;2.67;;;10.90;99.90;;;;;;6177192;23;20028;-65
2022/09/17 05:17:52;;;;;;;14.23;2.42;;;10.80;99.90;;;;;;6177943;23;20036;-65
2022/09/17 05:20:19;;;;;;;7.05;1.42;;;10.80;99.90;;;;;;6149910;23;20017;-66
2022/09/17 05:22:47;;;;;;;13.85;1.83;;;10.80;99.90;;;;;;6174894;23;20028;-65
2022/09/17 05:25:13;;;;;;;14.93;1.80;;;10.80;99.90;;;;;;6164234;23;20315;-66
2022/09/17 05:27:40;;;;;;;12.50;1.95;;;10.80;99.90;;;;;;6151684;23;20401;-66
2022/09/17 05:30:07;;;;;;;9.00;1.80;;;10.90;99.90;;;;;;6174491;23;20021;-66
2022/09/17 05:32:33;;;;;;;16.98;2.30;;;10.80;99.90;;;;;;6175722;23;20017;-66
2022/09/17 05:34:59;;;;;;;13.18;1.75;;;10.90;99.90;;;;;;6178524;23;20021;-66
2022/09/17 05:37:24;;;;;;;10.13;1.65;;;10.90;99.90;;;;;;6176545;23;20017;-66
2022/09/17 05:39:51;;;;;;;11.13;1.65;;;10.90;99.90;;;;;;6149336;23;20096;-67
2022/09/17 05:42:17;;;;;;;11.88;1.65;;;11.00;99.90;;;;;;6151533;23;20079;-66
2022/09/17 05:44:42;;;;;;;11.45;1.80;;;11.00;99.90;;;;;;6178603;23;20013;-67
2022/09/17 05:47:08;;;;;;;6.43;1.30;;;11.10;99.90;;;;;;6176562;23;20031;-67
2022/09/17 05:49:34;;;;;;;9.63;1.50;;;11.10;99.90;;;;;;6178422;23;20024;-65
2022/09/17 05:52:00;;;;;;;11.35;1.55;;;11.10;99.90;;;;;;6175011;23;20013;-65
2022/09/17 05:54:26;;;;;;;14.52;2.47;;;11.10;99.90;;;;;;6148867;23;20441;-65
2022/09/17 05:56:53;;;;;;;11.65;2.08;;;11.10;99.90;;;;;;6150323;23;20107;-66
2022/09/17 05:59:18;;;;;;;8.98;1.75;;;11.00;99.90;;;;;;6174280;23;20023;-67
2022/09/17 06:01:44;;;;;;;9.15;1.23;;;11.00;99.90;;;;;;6173121;23;20021;-67
2022/09/17 06:04:10;;;;;;;7.13;1.10;;;11.00;99.90;;;;;;6176002;23;20059;-67
2022/09/17 06:06:37;;;;;;;11.13;1.20;;;11.00;99.90;;;;;;6170616;23;20025;-66
2022/09/17 06:09:04;;;;;;;7.10;1.05;;;11.00;99.90;;;;;;6147815;23;20460;-66
2022/09/17 06:11:30;;;;;;;11.48;1.50;;;11.10;99.90;;;;;;6150057;23;20017;-64
2022/09/17 06:13:55;;;;;;;5.65;1.15;;;11.10;99.90;;;;;;6177490;23;20024;-65
2022/09/17 06:16:22;;;;;;;8.30;1.35;;;11.10;99.90;;;;;;6172696;23;20024;-67
2022/09/17 06:18:51;;;;;;;4.68;1.10;;;11.10;99.90;;;;;;6178031;23;20025;-66
2022/09/17 06:21:18;;;;;;;10.45;1.50;;;11.00;99.90;;;;;;6175029;23;20021;-66
2022/09/17 06:23:44;;;;;;;4.60;1.02;;;11.00;99.90;;;;;;6177120;23;20021;-66
2022/09/17 06:26:10;;;;;;;7.13;1.20;;;11.00;99.90;;;;;;6176479;23;20013;-66
2022/09/17 06:28:39;;;;;;;5.15;1.20;;;11.00;99.90;;;;;;6177075;23;20049;-66
2022/09/17 06:31:07;;;;;;;6.50;1.17;;;11.20;99.90;;;;;;6145840;23;20103;-67
2022/09/17 06:33:33;;;;;;;6.82;1.60;;;11.30;99.90;;;;;;6178770;23;20442;-67
2022/09/17 06:36:00;;;;;;;11.00;1.70;;;11.50;99.90;;;;;;6147047;23;20524;-67
2022/09/17 06:38:27;;;;;;;9.85;1.83;;;11.70;99.90;;;;;;6150701;23;20243;-66
2022/09/17 06:40:53;;;;;;;15.98;1.92;;;11.90;99.90;;;;;;6176988;23;20024;-68
2022/09/17 06:43:20;;;;;;;5.88;1.42;;;12.20;99.90;;;;;;6176416;23;20021;-67
2022/09/17 06:45:57;;;;;;;9.10;1.48;;;12.30;99.90;;;;;;6176430;23;20021;-69
2022/09/17 06:48:24;;;;;;;10.18;1.30;;;12.30;99.90;;;;;;6179101;23;20466;-68
2022/09/17 06:50:53;;;;;;;7.35;1.02;;;12.20;99.90;;;;;;6177444;23;20032;-68
2022/09/17 06:53:19;;;;;;;4.55;1.00;;;12.00;99.90;;;;;;6152128;23;20032;-68
2022/09/17 06:55:45;;;;;;;6.47;1.40;;;12.00;99.90;;;;;;6150739;23;20043;-68
2022/09/17 06:58:11;;;;;;;4.68;1.00;;;11.90;99.90;;;;;;6174481;23;20442;-68
2022/09/17 07:00:37;;;;;;;4.10;1.02;;;11.80;99.90;;;;;;6175423;23;20052;-68
2022/09/17 07:03:02;;;;;;;12.35;2.40;;;11.80;99.90;;;;;;6178924;23;20108;-72
2022/09/17 07:05:29;;;;;;;6.43;1.20;;;11.60;99.90;;;;;;6179166;23;20052;-68
2022/09/17 07:07:55;;;;;;;7.15;1.50;;;11.30;99.90;;;;;;6177271;23;20052;-68
2022/09/17 07:10:25;;;;;;;3.20;1.02;;;11.10;99.90;;;;;;6177226;23;20380;-69
2022/09/17 07:12:51;;;;;;;6.75;0.90;;;11.00;99.90;;;;;;6178973;23;20017;-67
2022/09/17 07:15:17;;;;;;;5.45;0.90;;;11.00;99.90;;;;;;6178517;23;20068;-67
2022/09/17 07:17:43;;;;;;;4.70;0.88;;;11.00;99.90;;;;;;6178630;23;20539;-67
2022/09/17 07:20:09;;;;;;;4.80;1.02;;;10.90;99.90;;;;;;6176904;23;20021;-67
2022/09/17 07:22:35;;;;;;;8.57;1.38;;;10.90;99.90;;;;;;6150480;23;20021;-67
2022/09/17 07:25:01;;;;;;;6.03;1.38;;;10.90;99.90;;;;;;6148125;23;20040;-72
2022/09/17 07:27:31;;;;;;;7.32;1.70;;;10.80;99.90;;;;;;6177210;23;20088;-67
2022/09/17 07:29:57;;;;;;;7.80;1.33;;;10.90;99.90;;;;;;6153273;23;20017;-68
2022/09/17 07:32:23;;;;;;;7.60;1.33;;;11.00;99.90;;;;;;6152030;23;20388;-67
2022/09/17 07:34:49;;;;;;;8.20;1.48;;;11.10;99.90;;;;;;6153443;23;20013;-67
2022/09/17 07:37:20;;;;;;;9.30;1.88;;;11.20;99.90;;;;;;6176846;23;20095;-67
2022/09/17 07:39:45;;;;;;;9.90;1.42;;;11.40;99.90;;;;;;6150451;23;20027;-68
2022/09/17 07:42:11;;;;;;;9.40;1.40;;;11.50;99.90;;;;;;6149723;23;20088;-68
2022/09/17 07:44:37;;;;;;;10.05;1.63;;;11.50;99.90;;;;;;6177384;23;20048;-70
2022/09/17 07:47:03;;;;;;;11.48;1.63;;;11.50;99.90;;;;;;6178603;23;20051;-70
2022/09/17 07:49:30;;;;;;;14.07;1.90;;;11.40;99.90;;;;;;6179671;23;20013;-68
2022/09/17 07:51:55;;;;;;;11.63;1.90;;;11.40;99.90;;;;;;6151737;23;20088;-68
2022/09/17 07:54:21;;;;;;;11.25;1.83;;;11.60;99.90;;;;;;6179289;23;20044;-67
2022/09/17 07:56:47;;;;;;;11.45;1.70;;;11.80;99.90;;;;;;6179644;23;20500;-68
2022/09/17 07:59:13;;;;;;;7.68;1.70;;;12.10;99.90;;;;;;6163343;23;20028;-69
2022/09/17 08:01:39;;;;;;;9.75;1.73;;;12.10;99.90;;;;;;6175262;23;20027;-68
2022/09/17 08:04:05;;;;;;;8.48;1.70;;;12.10;99.90;;;;;;6179358;23;20487;-68
2022/09/17 08:06:35;;;;;;;12.35;1.88;;;11.90;99.90;;;;;;6177514;23;20096;-68
2022/09/17 08:09:00;;;;;;;12.82;2.03;;;11.80;99.90;;;;;;6178967;23;20013;-73
2022/09/17 08:11:28;;;;;;;12.45;2.00;;;11.70;99.90;;;;;;6178289;23;20045;-67
2022/09/17 08:13:54;;;;;;;6.78;1.20;;;11.60;99.90;;;;;;6174288;23;20029;-68
2022/09/17 08:16:21;;;;;;;10.75;1.60;;;11.60;99.90;;;;;;6177374;23;20409;-68
2022/09/17 08:18:48;;;;;;;9.05;1.55;;;11.80;99.90;;;;;;6179286;23;20021;-68
2022/09/17 08:21:17;;;;;;;8.13;1.70;;;11.90;99.90;;;;;;6175636;23;20040;-68
2022/09/17 08:23:43;;;;;;;8.40;1.60;;;12.00;99.90;;;;;;6180283;23;20040;-69
2022/09/17 08:26:14;;;;;;;14.38;1.58;;;12.10;99.90;;;;;;6179756;23;20412;-69
2022/09/17 08:28:48;;;;;;;8.13;1.77;;;12.20;99.90;;;;;;6178138;23;20095;-69
2022/09/17 08:31:15;;;;;;;9.85;1.50;;;12.20;99.90;;;;;;6178460;23;20071;-69
2022/09/17 08:33:41;;;;;;;8.15;1.67;;;12.10;99.90;;;;;;6179253;23;20025;-68
2022/09/17 08:36:11;;;;;;;11.68;2.15;;;12.10;99.90;;;;;;6149236;23;20021;-69
2022/09/17 08:38:37;;;;;;;14.05;2.45;;;12.10;99.90;;;;;;6178649;23;20020;-68
2022/09/17 08:41:17;;;;;;;7.15;1.42;;;12.10;99.90;;;;;;6152060;23;20016;-68
2022/09/17 08:44:11;;;;;;;9.80;1.60;;;12.30;99.90;;;;;;6177190;23;20083;-68
2022/09/17 08:46:49;;;;;;;10.55;1.60;;;12.60;99.90;;;;;;6177159;23;20075;-68
2022/09/17 08:49:29;;;;;;;20.30;2.47;;;12.90;99.90;;;;;;6175802;23;20075;-68
2022/09/17 08:52:17;;;;;;;9.07;2.20;;;13.10;99.90;;;;;;6174966;23;20017;-68
2022/09/17 08:54:45;;;;;;;5.70;1.23;;;13.40;99.90;;;;;;6178538;23;20509;-68
2022/09/17 08:57:26;;;;;;;10.88;2.00;;;13.60;99.90;;;;;;6177231;23;20028;-68
2022/09/17 09:00:12;;;;;;;7.75;1.20;;;13.70;99.90;;;;;;6176524;23;20016;-68
2022/09/17 09:02:50;;;;;;;5.93;1.27;;;13.70;99.90;;;;;;6151563;23;20036;-68
2022/09/17 09:05:20;;;;;;;7.50;1.00;;;13.80;99.90;;;;;;6177052;23;20029;-68
2022/09/17 09:07:50;;;;;;;8.68;1.75;;;13.90;99.90;;;;;;6176399;23;20304;-68
2022/09/17 09:10:43;;;;;;;9.85;1.73;;;14.00;99.90;;;;;;6175631;23;20097;-69
2022/09/17 09:13:14;;;;;;;7.95;1.42;;;14.30;99.90;;;;;;6163677;23;20056;-70
2022/09/17 09:16:04;;;;;;;4.50;1.10;;;14.50;99.90;;;;;;6177813;23;20449;-69
2022/09/17 09:18:34;;;;;;;3.75;0.90;;;14.40;99.90;;;;;;6177535;23;20076;-68
2022/09/17 09:21:21;;;;;;;5.93;1.05;;;14.10;99.90;;;;;;6177565;23;20396;-69
2022/09/17 09:24:08;;;;;;;7.32;1.30;;;13.80;99.90;;;;;;6178103;23;20321;-67
2022/09/17 09:26:46;;;;;;;6.10;1.40;;;13.60;99.90;;;;;;6176331;23;20507;-69
2022/09/17 09:29:51;;;;;;;5.93;1.13;;;13.60;99.90;;;;;;6166349;23;20029;-70
2022/09/17 09:32:39;;;;;;;12.10;2.17;;;13.70;99.90;;;;;;6117906;23;20486;-70
2022/09/17 09:35:33;;;;;;;10.25;1.75;;;14.10;99.90;;;;;;6176621;23;20025;-70
2022/09/17 09:38:04;;;;;;;17.92;2.92;;;14.40;99.90;;;;;;6171131;23;20021;-70
2022/09/17 09:40:44;;;;;;;6.28;1.15;;;14.60;99.90;;;;;;6149264;23;20515;-71
2022/09/17 09:43:16;;;;;;;9.38;1.75;;;14.60;99.90;;;;;;6150877;23;20027;-71
2022/09/17 09:46:15;;;;;;;7.75;1.73;;;14.30;99.90;;;;;;6173264;23;20088;-72
2022/09/17 09:48:51;;;;;;;9.57;2.00;;;14.00;99.90;;;;;;6175465;23;20452;-69
2022/09/17 09:51:43;;;;;;;10.50;1.77;;;13.70;99.90;;;;;;6146761;23;20029;-70
2022/09/17 09:54:27;;;;;;;9.45;1.48;;;13.60;99.90;;;;;;6176378;23;20033;-71
2022/09/17 09:57:02;;;;;;;4.88;1.23;;;13.70;99.90;;;;;;6176429;23;20095;-70
2022/09/17 09:59:28;;;;;;;4.38;1.10;;;14.00;99.90;;;;;;6175342;23;20021;-70
2022/09/17 10:01:53;;;;;;;7.03;1.10;;;14.20;99.90;;;;;;6151026;23;20086;-69
2022/09/17 10:04:28;;;;;;;12.07;1.42;;;14.20;99.90;;;;;;6175628;23;20021;-70
2022/09/17 10:07:07;;;;;;;7.22;1.67;;;14.20;99.90;;;;;;6151305;23;20017;-71
2022/09/17 10:09:36;;;;;;;8.95;2.13;;;14.30;99.90;;;;;;6177647;23;20048;-70
2022/09/17 10:12:14;;;;;;;14.23;2.67;;;14.30;99.90;;;;;;6176770;23;20021;-71
2022/09/17 10:14:42;;;;;;;8.43;1.73;;;14.60;99.90;;;;;;6178150;23;20009;-71
2022/09/17 10:17:19;;;;;;;6.45;1.40;;;14.80;99.90;;;;;;6150308;23;20036;-72
2022/09/17 10:19:58;;;;;;;5.55;1.27;;;14.30;99.90;;;;;;6178354;23;20037;-70
2022/09/17 10:22:29;;;;;;;7.25;1.40;;;13.90;99.90;;;;;;6175919;23;20017;-69
2022/09/17 10:24:57;;;;;;;7.40;2.00;;;13.50;99.90;;;;;;6180264;23;20036;-70
2022/09/17 10:27:24;;;;;;;8.57;1.48;;;13.40;99.90;;;;;;6179910;23;20476;-70
2022/09/17 10:30:12;;;;;;;5.55;1.40;;;13.30;99.90;;;;;;6149897;23;20349;-70
2022/09/17 10:32:37;;;;;;;8.38;1.77;;;13.20;99.90;;;;;;6177431;23;20031;-70
2022/09/17 10:35:05;;;;;;;6.53;1.30;;;13.10;99.90;;;;;;6177757;23;20100;-71
2022/09/17 10:37:42;;;;;;;10.00;1.50;;;13.10;99.90;;;;;;6177436;23;20056;-71
2022/09/17 10:40:17;;;;;;;10.73;1.63;;;13.00;99.90;;;;;;6152057;23;20074;-71
2022/09/17 10:42:47;;;;;;;8.50;1.50;;;12.90;99.90;;;;;;6177770;23;20025;-71
2022/09/17 10:45:29;;;;;;;7.90;2.25;;;12.70;99.90;;;;;;6146792;23;20116;-71
2022/09/17 10:47:57;;;;;;;8.48;1.42;;;12.50;99.90;;;;;;6169737;23;20021;-72
2022/09/17 10:50:34;;;;;;;11.45;1.45;;;12.50;99.90;;;;;;6173736;23;20037;-71
2022/09/17 10:53:05;;;;;;;14.73;2.15;;;12.50;99.90;;;;;;6173204;23;20017;-74
2022/09/17 10:55:36;;;;;;;12.95;2.38;;;12.50;99.90;;;;;;6151639;23;20048;-71
2022/09/17 10:58:31;;;;;;;13.30;1.80;;;12.40;99.90;;;;;;6177873;23;20013;-71
2022/09/17 11:01:28;;;;;;;15.43;2.47;;;12.40;99.90;;;;;;6175473;23;20013;-71
2022/09/17 11:04:15;;;;;;;11.50;2.08;;;12.60;99.90;;;;;;6176652;23;20082;-68
2022/09/17 11:06:54;;;;;;;11.43;1.88;;;12.90;99.90;;;;;;6174699;23;20024;-70
2022/09/17 11:09:46;;;;;;;11.23;2.10;;;13.30;99.90;;;;;;6173805;23;20013;-70
2022/09/17 11:12:22;;;;;;;8.48;2.17;;;13.70;99.90;;;;;;6176143;23;20037;-71
2022/09/17 11:15:00;;;;;;;9.68;1.70;;;13.80;99.90;;;;;;6150551;23;20020;-73
2022/09/17 11:17:59;;;;;;;10.27;2.38;;;13.50;99.90;;;;;;6148206;23;20036;-73
2022/09/17 11:20:46;;;;;;;15.15;3.10;;;13.10;99.90;;;;;;6177892;23;20043;-73
2022/09/17 11:23:32;;;;;;;11.35;1.77;;;12.80;99.90;;;;;;6149254;23;20474;-72
2022/09/17 11:26:06;;;;;;;8.95;1.60;;;12.70;99.90;;;;;;6176099;23;20036;-71
2022/09/17 11:28:40;;;;;;;12.15;2.42;;;12.60;99.90;;;;;;6176300;23;20049;-71
2022/09/17 11:31:15;;;;;;;5.70;1.73;;;12.70;99.90;;;;;;6176459;23;20475;-71
2022/09/17 11:33:49;;;;;;;8.75;2.00;;;12.80;99.90;;;;;;6179061;23;20028;-71
2022/09/17 11:36:24;;;;;;;14.88;2.15;;;13.00;99.90;;;;;;6150554;23;20025;-71
2022/09/17 11:38:52;;;;;;;12.05;2.45;;;13.30;99.90;;;;;;6176633;23;20402;-70
2022/09/17 11:41:45;;;;;;;10.85;1.92;;;13.60;99.90;;;;;;6151160;23;20021;-69
2022/09/17 11:44:26;;;;;;;;;;;13.90;99.90;;;;;;6174067;23;20028;-70
2022/09/17 11:47:17;;;;;;;14.07;2.67;;;14.20;99.90;;;;;;6151916;23;19916;-71
2022/09/17 11:49:52;;;;;;;16.75;3.00;;;14.40;99.90;;;;;;6151225;23;20044;-70
2022/09/17 11:52:45;;;;;;;13.13;2.38;;;14.60;99.90;;;;;;6173866;23;20026;-70
2022/09/17 11:55:24;;;;;;;12.32;2.42;;;14.80;99.90;;;;;;6177409;23;20021;-70
2022/09/17 11:57:56;;;;;;;10.52;3.05;;;14.90;99.90;;;;;;6175428;23;20505;-70
2022/09/17 12:00:22;;;;;;;14.88;2.88;;;15.00;99.90;;;;;;6177105;23;20005;-71
2022/09/17 12:03:12;;;;;;;18.80;2.78;;;15.10;99.90;;;;;;6174277;23;20075;-70
2022/09/17 12:05:45;;;;;;;15.65;3.15;;;15.10;99.90;;;;;;6175446;23;20537;-73
2022/09/17 12:08:16;;;;;;;14.73;2.42;;;15.20;99.90;;;;;;6150388;23;20434;-74
2022/09/17 12:11:00;;;;;;;13.93;2.45;;;15.30;99.90;;;;;;6178511;23;20028;-74
2022/09/17 12:13:41;;;;;;;10.80;2.17;;;15.40;99.90;;;;;;6174575;23;20501;-73
2022/09/17 12:16:13;;;;;;;9.80;2.78;;;15.40;99.90;;;;;;6151241;23;20013;-74
2022/09/17 12:19:13;;;;;;;13.15;2.33;;;15.50;99.90;;;;;;6152396;23;20021;-74
2022/09/17 12:21:46;;;;;;;10.20;2.00;;;15.60;99.90;;;;;;6173692;23;20094;-73
2022/09/17 12:24:22;;;;;;;;;;;15.60;99.90;;;;;;6149313;23;20488;-74
2022/09/17 12:27:03;;;;;;;10.52;1.90;;;15.70;99.90;;;;;;6176264;23;19920;-74
2022/09/17 12:30:06;;;;;;;12.60;2.42;;;15.70;99.90;;;;;;6138934;23;20112;-73
2022/09/17 12:32:50;;;;;;;10.60;2.22;;;15.70;99.90;;;;;;6148587;23;20025;-74
2022/09/17 12:35:30;;;;;;;11.20;2.05;;;15.50;99.90;;;;;;6172527;23;20040;-78
2022/09/17 12:38:16;;;;;;;9.27;1.95;;;15.20;99.90;;;;;;6171952;23;20017;-74
2022/09/17 12:41:14;;;;;;;10.85;2.55;;;15.00;99.90;;;;;;6177604;23;20024;-73
2022/09/17 12:44:16;;;;;;;7.90;1.88;;;14.70;99.90;;;;;;6176990;23;20087;-74
2022/09/17 12:47:13;;;;;;;14.10;2.42;;;14.40;99.90;;;;;;6176393;23;20025;-74
2022/09/17 12:49:50;;;;;;;14.13;2.53;;;14.50;99.90;;;;;;6177585;23;20025;-74
2022/09/17 12:52:37;;;;;;;11.02;2.67;;;14.80;99.90;;;;;;6174300;23;20018;-74
2022/09/17 12:55:40;;;;;;;11.90;2.05;;;15.00;99.90;;;;;;6177502;23;20016;-75
2022/09/17 12:58:30;;;;;;;10.02;1.98;;;15.10;99.90;;;;;;6175844;23;20028;-70
2022/09/17 13:01:06;;;;;;;8.23;2.03;;;15.00;99.90;;;;;;6178543;23;20025;-70
2022/09/17 13:03:43;;;;;;;12.00;1.95;;;15.00;99.90;;;;;;6174885;23;20291;-69
2022/09/17 13:06:59;;;;;;;7.78;1.25;;;15.00;99.90;;;;;;6148540;23;20017;-70
2022/09/17 13:09:54;;;;;;;7.82;1.65;;;15.00;99.90;;;;;;6136117;23;20017;-70
2022/09/17 13:12:31;;;;;;;4.45;1.10;;;15.10;99.90;;;;;;6149219;23;20610;-69